createdAt,value
2022-12-23T00:01:21.848Z,11.43
2022-12-23T00:03:49.729Z,11.24
2022-12-23T00:06:19.246Z,11.30
2022-12-23T00:08:47.423Z,11.23
2022-12-23T00:11:17.582Z,11.10
2022-12-23T00:14:03.407Z,11.33
2022-12-23T00:16:32.675Z,11.30
2022-12-23T00:19:00.519Z,11.17
2022-12-23T00:21:28.380Z,11.16
2022-12-23T00:23:56.168Z,11.22
2022-12-23T00:26:25.652Z,11.18
2022-12-23T00:28:53.897Z,11.27
2022-12-23T00:31:22.079Z,11.19
2022-12-23T00:33:54.278Z,11.18
2022-12-23T00:36:24.220Z,11.16
2022-12-23T00:39:10.229Z,11.15
2022-12-23T00:41:56.050Z,11.11
2022-12-23T00:44:24.217Z,11.10
2022-12-23T00:46:51.939Z,11.17
2022-12-23T00:49:39.294Z,11.08
2022-12-23T00:52:08.777Z,11.13
2022-12-23T00:54:36.873Z,11.18
2022-12-23T00:57:04.973Z,11.16
2022-12-23T00:59:32.719Z,11.04
2022-12-23T01:02:18.065Z,11.37
2022-12-23T01:05:04.614Z,10.99
2022-12-23T01:07:32.399Z,11.08
2022-12-23T01:10:00.146Z,11.12
2022-12-23T01:12:28.294Z,11.07
2022-12-23T01:14:56.081Z,11.00
2022-12-23T01:17:23.979Z,10.97
2022-12-23T01:19:53.166Z,11.02
2022-12-23T01:22:20.951Z,10.94
2022-12-23T01:24:48.752Z,10.90
2022-12-23T01:27:16.515Z,10.99
2022-12-23T01:29:44.219Z,10.93
2022-12-23T01:32:12.067Z,11.00
2022-12-23T01:34:39.874Z,10.89
2022-12-23T01:37:08.925Z,10.93
2022-12-23T01:39:36.721Z,11.00
2022-12-23T01:42:22.830Z,11.16
2022-12-23T01:44:55.051Z,11.36
2022-12-23T01:47:31.572Z,11.19
2022-12-23T01:50:06.761Z,11.17
2022-12-23T01:52:41.343Z,11.08
2022-12-23T01:55:10.293Z,11.03
2022-12-23T01:57:42.395Z,11.05
2022-12-23T02:00:28.746Z,11.06
2022-12-23T02:03:14.196Z,10.96
2022-12-23T02:05:43.861Z,10.98
2022-12-23T02:08:32.915Z,11.06
2022-12-23T02:11:19.915Z,10.98
2022-12-23T02:14:16.619Z,11.05
2022-12-23T02:16:54.537Z,11.03
2022-12-23T02:19:45.317Z,11.00
2022-12-23T02:22:37.828Z,10.93
2022-12-23T02:25:32.437Z,11.05
2022-12-23T02:28:18.772Z,11.14
2022-12-23T02:30:52.533Z,11.06
2022-12-23T02:33:31.637Z,11.15
2022-12-23T02:36:10.380Z,11.12
2022-12-23T02:38:49.111Z,11.04
2022-12-23T02:41:24.051Z,10.91
2022-12-23T02:43:58.813Z,11.07
2022-12-23T02:46:33.725Z,11.15
2022-12-23T02:49:08.319Z,11.04
2022-12-23T02:51:40.216Z,11.01
2022-12-23T02:54:12.422Z,11.02
2022-12-23T02:56:46.299Z,11.06
2022-12-23T02:59:18.701Z,11.13
2022-12-23T03:01:48.963Z,11.01
2022-12-23T03:04:16.831Z,11.08
2022-12-23T03:06:47.039Z,11.02
2022-12-23T03:09:21.873Z,11.16
2022-12-23T03:12:09.036Z,11.09
2022-12-23T03:14:59.171Z,10.96
2022-12-23T03:17:39.630Z,10.93
2022-12-23T03:20:14.749Z,10.87
2022-12-23T03:22:51.161Z,10.93
2022-12-23T03:25:24.344Z,10.92
2022-12-23T03:27:58.263Z,10.88
2022-12-23T03:30:26.531Z,11.04
2022-12-23T03:32:59.380Z,10.81
2022-12-23T03:35:33.543Z,10.80
2022-12-23T03:38:03.508Z,10.68
2022-12-23T03:40:36.806Z,10.70
2022-12-23T03:43:08.272Z,10.82
2022-12-23T03:45:42.264Z,10.87
2022-12-23T03:48:18.748Z,10.71
2022-12-23T03:50:48.982Z,10.66
2022-12-23T03:53:23.405Z,10.79
2022-12-23T03:55:57.232Z,10.89
2022-12-23T03:58:35.092Z,10.82
2022-12-23T04:01:11.830Z,10.86
2022-12-23T04:03:50.842Z,10.68
2022-12-23T04:06:21.937Z,10.66
2022-12-23T04:08:51.071Z,10.57
2022-12-23T04:11:19.323Z,10.60
2022-12-23T04:13:49.043Z,10.67
2022-12-23T04:16:17.509Z,10.73
2022-12-23T04:18:47.839Z,10.71
2022-12-23T04:21:15.622Z,10.70
2022-12-23T04:23:43.490Z,10.75
2022-12-23T04:26:11.281Z,10.75
2022-12-23T04:28:38.976Z,10.79
2022-12-23T04:31:06.809Z,10.91
2022-12-23T04:33:34.632Z,10.77
2022-12-23T04:36:03.847Z,10.61
2022-12-23T04:38:31.674Z,10.60
2022-12-23T04:40:59.459Z,10.55
2022-12-23T04:43:27.265Z,10.61
2022-12-23T04:45:55.060Z,10.60
2022-12-23T04:48:22.952Z,10.47
2022-12-23T04:50:50.725Z,10.44
2022-12-23T04:53:19.842Z,10.50
2022-12-23T04:55:51.310Z,10.60
2022-12-23T04:58:22.060Z,10.69
2022-12-23T05:00:50.123Z,10.54
2022-12-23T05:03:18.328Z,10.69
2022-12-23T05:05:46.370Z,10.66
2022-12-23T05:08:14.126Z,10.64
2022-12-23T05:10:43.286Z,10.35
2022-12-23T05:13:11.184Z,10.37
2022-12-23T05:15:38.930Z,10.62
2022-12-23T05:18:06.820Z,10.40
2022-12-23T05:20:34.938Z,10.59
2022-12-23T05:23:02.667Z,10.76
2022-12-23T05:25:30.736Z,10.30
2022-12-23T05:27:59.900Z,10.42
2022-12-23T05:30:27.768Z,10.44
2022-12-23T05:32:56.179Z,10.36
2022-12-23T05:35:25.094Z,10.52
2022-12-23T05:37:53.135Z,10.61
2022-12-23T05:40:24.660Z,10.51
2022-12-23T05:42:53.024Z,10.68
2022-12-23T05:45:22.416Z,10.68
2022-12-23T05:47:50.261Z,10.78
2022-12-23T05:50:18.142Z,10.35
2022-12-23T05:52:45.941Z,10.40
2022-12-23T05:55:13.688Z,10.53
2022-12-23T05:57:41.529Z,10.45
2022-12-23T06:00:11.163Z,10.44
2022-12-23T06:02:40.475Z,10.58
2022-12-23T06:05:09.240Z,10.61
2022-12-23T06:07:37.290Z,10.31
2022-12-23T06:10:06.002Z,10.45
2022-12-23T06:12:33.850Z,10.37
2022-12-23T06:15:01.711Z,10.17
2022-12-23T06:17:29.511Z,10.01
2022-12-23T06:19:58.657Z,10.07
2022-12-23T06:22:26.555Z,9.93
2022-12-23T06:24:54.294Z,10.10
2022-12-23T06:27:22.036Z,9.99
2022-12-23T06:29:49.859Z,9.95
2022-12-23T06:32:17.648Z,9.85
2022-12-23T06:34:50.175Z,9.95
2022-12-23T06:37:19.285Z,9.94
2022-12-23T06:39:47.028Z,9.92
2022-12-23T06:42:14.820Z,9.81
2022-12-23T06:44:42.746Z,9.84
2022-12-23T06:47:10.573Z,9.84
2022-12-23T06:49:38.383Z,9.88
2022-12-23T06:52:06.358Z,9.91
2022-12-23T06:54:35.439Z,10.04
2022-12-23T06:57:03.172Z,10.02
2022-12-23T06:59:31.506Z,10.05
2022-12-23T07:01:59.421Z,10.16
2022-12-23T07:04:27.372Z,10.14
2022-12-23T07:06:55.248Z,10.26
2022-12-23T07:09:23.052Z,10.21
2022-12-23T07:11:52.180Z,10.24
2022-12-23T07:14:19.950Z,10.50
2022-12-23T07:16:48.182Z,10.36
2022-12-23T07:19:16.093Z,10.34
2022-12-23T07:21:43.869Z,10.49
2022-12-23T07:24:11.963Z,10.52
2022-12-23T07:26:39.792Z,10.53
2022-12-23T07:29:08.960Z,10.48
2022-12-23T07:31:40.780Z,10.30
2022-12-23T07:34:10.757Z,10.40
2022-12-23T07:36:38.577Z,10.57
2022-12-23T07:39:06.499Z,10.49
2022-12-23T07:41:34.305Z,10.46
2022-12-23T07:44:02.122Z,10.27
2022-12-23T07:46:31.329Z,10.54
2022-12-23T07:48:59.242Z,10.52
2022-12-23T07:51:27.002Z,10.63
2022-12-23T07:53:54.819Z,10.77
2022-12-23T07:56:22.647Z,10.57
2022-12-23T07:58:50.859Z,10.76
2022-12-23T08:01:19.675Z,10.74
2022-12-23T08:03:48.975Z,10.82
2022-12-23T08:06:17.419Z,10.79
2022-12-23T08:08:47.172Z,10.78
2022-12-23T08:11:16.638Z,10.85
2022-12-23T08:13:46.265Z,10.91
2022-12-23T08:16:14.127Z,10.93
2022-12-23T08:18:43.144Z,11.05
2022-12-23T08:21:15.669Z,11.34
2022-12-23T08:23:43.935Z,11.40
2022-12-23T08:26:14.386Z,11.37
2022-12-23T08:28:43.525Z,11.21
2022-12-23T08:31:14.014Z,11.39
2022-12-23T08:33:44.147Z,11.12
2022-12-23T08:36:19.206Z,11.04
2022-12-23T08:38:50.820Z,11.26
2022-12-23T08:41:21.375Z,11.07
2022-12-23T08:43:49.317Z,11.13
2022-12-23T08:46:17.255Z,11.15
2022-12-23T08:48:49.483Z,11.16
2022-12-23T08:51:21.648Z,11.11
2022-12-23T08:53:54.813Z,11.39
2022-12-23T08:56:26.272Z,11.39
2022-12-23T08:58:55.615Z,11.44
2022-12-23T09:01:25.821Z,11.58
2022-12-23T09:03:54.454Z,11.48
2022-12-23T09:06:29.680Z,11.46
2022-12-23T09:08:58.317Z,11.47
2022-12-23T09:11:27.876Z,11.41
2022-12-23T09:13:56.551Z,11.47
2022-12-23T09:16:24.675Z,11.35
2022-12-23T09:18:52.509Z,11.34
2022-12-23T09:21:21.984Z,11.45
2022-12-23T09:23:51.343Z,11.47
2022-12-23T09:26:21.454Z,11.43
2022-12-23T09:28:49.325Z,11.22
2022-12-23T09:31:17.809Z,11.41
2022-12-23T09:33:47.970Z,11.36
2022-12-23T09:36:16.067Z,11.28
2022-12-23T09:38:44.280Z,11.51
2022-12-23T09:41:24.133Z,11.32
2022-12-23T09:43:59.930Z,11.45
2022-12-23T09:46:30.836Z,11.29
2022-12-23T09:49:03.305Z,11.39
2022-12-23T09:51:32.301Z,11.82
2022-12-23T09:54:04.586Z,11.50
2022-12-23T09:56:41.231Z,11.58
2022-12-23T09:59:24.838Z,11.87
2022-12-23T10:01:59.172Z,11.91
2022-12-23T10:04:42.859Z,11.73
2022-12-23T10:07:32.302Z,12.07
2022-12-23T10:10:07.286Z,11.98
2022-12-23T10:12:41.754Z,11.89
2022-12-23T10:15:22.361Z,11.67
2022-12-23T10:17:54.141Z,11.63
2022-12-23T10:20:32.451Z,11.74
2022-12-23T10:23:00.975Z,11.84
2022-12-23T10:25:34.472Z,11.86
2022-12-23T10:28:04.959Z,11.86
2022-12-23T10:33:37.549Z,11.87
2022-12-23T10:36:14.567Z,11.78
2022-12-23T10:38:52.798Z,12.11
2022-12-23T10:41:29.859Z,12.38
2022-12-23T10:44:27.195Z,12.27
2022-12-23T10:47:06.589Z,12.04
2022-12-23T10:49:43.318Z,11.94
2022-12-23T10:52:16.427Z,12.26
2022-12-23T10:54:46.436Z,12.23
2022-12-23T10:57:16.190Z,12.19
2022-12-23T10:59:45.572Z,12.18
2022-12-23T11:02:33.101Z,11.95
2022-12-23T11:05:01.032Z,12.10
2022-12-23T11:07:46.486Z,11.94
2022-12-23T11:10:18.763Z,11.96
2022-12-23T11:12:49.397Z,11.69
2022-12-23T11:15:31.633Z,11.66
2022-12-23T11:18:08.063Z,11.67
2022-12-23T11:20:37.534Z,11.72
2022-12-23T11:23:07.386Z,11.67
2022-12-23T11:25:38.157Z,11.86
2022-12-23T11:28:16.207Z,11.86
2022-12-23T11:30:56.553Z,11.75
2022-12-23T11:33:27.569Z,11.91
2022-12-23T11:36:04.520Z,11.99
2022-12-23T11:38:33.095Z,11.93
2022-12-23T11:41:01.801Z,11.84
2022-12-23T11:43:30.256Z,11.79
2022-12-23T11:46:26.369Z,11.58
2022-12-23T11:49:06.933Z,11.89
2022-12-23T11:51:34.919Z,11.59
2022-12-23T11:54:03.938Z,11.61
2022-12-23T11:56:38.589Z,11.84
2022-12-23T11:59:09.894Z,11.85
2022-12-23T12:01:40.231Z,11.97
2022-12-23T12:04:15.725Z,11.86
2022-12-23T12:06:48.443Z,11.92
2022-12-23T12:09:21.932Z,12.18
2022-12-23T12:11:52.319Z,12.22
2022-12-23T12:14:26.210Z,12.11
2022-12-23T12:17:01.672Z,12.00
2022-12-23T12:19:34.462Z,11.99
2022-12-23T12:22:07.087Z,12.10
2022-12-23T12:24:39.963Z,12.01
2022-12-23T12:27:11.291Z,12.26
2022-12-23T12:29:44.692Z,12.16
2022-12-23T12:32:21.800Z,11.95
2022-12-23T12:34:55.736Z,12.10
2022-12-23T12:37:33.857Z,12.17
2022-12-23T12:40:04.067Z,12.01
2022-12-23T12:42:39.159Z,12.18
2022-12-23T12:45:18.300Z,12.17
2022-12-23T12:48:05.977Z,11.99
2022-12-23T12:50:45.586Z,12.15
2022-12-23T12:53:19.840Z,12.14
2022-12-23T12:55:51.846Z,12.25
2022-12-23T12:58:22.859Z,12.36
2022-12-23T13:01:03.644Z,12.24
2022-12-23T13:04:05.649Z,12.27
2022-12-23T13:06:40.778Z,12.20
2022-12-23T13:09:21.262Z,12.17
2022-12-23T13:11:56.205Z,12.33
2022-12-23T13:14:35.239Z,12.24
2022-12-23T13:17:09.561Z,12.22
2022-12-23T13:19:47.545Z,12.24
2022-12-23T13:22:18.520Z,12.39
2022-12-23T13:25:00.215Z,12.38
2022-12-23T13:27:32.741Z,12.29
2022-12-23T13:30:13.135Z,12.39
2022-12-23T13:33:05.067Z,12.39
2022-12-23T13:35:49.876Z,12.31
2022-12-23T13:38:31.539Z,12.24
2022-12-23T13:41:05.795Z,12.22
2022-12-23T13:43:42.714Z,12.21
2022-12-23T13:46:19.603Z,12.23
2022-12-23T13:48:58.572Z,12.25
2022-12-23T13:51:34.140Z,12.14
2022-12-23T13:54:12.285Z,12.30
2022-12-23T13:56:44.004Z,12.26
2022-12-23T13:59:15.533Z,12.25
2022-12-23T14:01:48.523Z,12.26
2022-12-23T14:04:59.324Z,12.29
2022-12-23T14:07:31.668Z,12.18
2022-12-23T14:10:10.204Z,12.24
2022-12-23T14:12:40.763Z,12.20
2022-12-23T14:15:36.605Z,12.09
2022-12-23T14:18:18.986Z,12.39
2022-12-23T14:20:52.173Z,12.29
2022-12-23T14:23:34.299Z,12.28
2022-12-23T14:26:20.159Z,12.15
2022-12-23T14:29:03.043Z,12.14
2022-12-23T14:31:36.421Z,12.23
2022-12-23T14:34:07.265Z,12.22
2022-12-23T14:36:35.321Z,12.18
2022-12-23T14:39:31.962Z,12.22
2022-12-23T14:42:06.007Z,12.10
2022-12-23T14:44:50.364Z,12.19
2022-12-23T14:47:34.444Z,12.19
2022-12-23T14:50:38.355Z,12.25
2022-12-23T14:53:21.827Z,12.21
2022-12-23T14:55:53.608Z,12.21
2022-12-23T14:58:51.297Z,12.27
2022-12-23T15:01:22.612Z,12.17
2022-12-23T15:03:59.227Z,12.25
2022-12-23T15:06:36.506Z,12.23
2022-12-23T15:09:07.565Z,12.36
2022-12-23T15:11:37.571Z,12.43
2022-12-23T15:14:10.294Z,12.37
2022-12-23T15:16:40.376Z,12.09
2022-12-23T15:19:22.530Z,12.02
2022-12-23T15:21:59.608Z,11.95
2022-12-23T15:24:33.251Z,11.82
2022-12-23T15:27:25.411Z,12.09
2022-12-23T15:29:53.136Z,12.30
2022-12-23T15:32:24.280Z,12.28
2022-12-23T15:34:53.732Z,12.40
2022-12-23T15:37:28.865Z,12.36
2022-12-23T15:40:04.821Z,12.29
2022-12-23T15:42:39.239Z,12.42
2022-12-23T15:45:36.218Z,12.52
2022-12-23T15:48:06.570Z,12.52
2022-12-23T15:50:41.853Z,12.34
2022-12-23T15:53:11.741Z,12.52
2022-12-23T15:55:41.402Z,12.67
2022-12-23T15:58:19.679Z,12.43
2022-12-23T16:00:56.331Z,12.58
2022-12-23T16:03:29.513Z,12.58
2022-12-23T16:06:11.238Z,12.50
2022-12-23T16:08:39.872Z,12.42
2022-12-23T16:11:14.925Z,12.55
2022-12-23T16:13:58.524Z,12.56
2022-12-23T16:16:38.360Z,12.65
2022-12-23T16:19:06.535Z,12.56
2022-12-23T16:21:37.573Z,12.77
2022-12-23T16:24:09.794Z,12.63
2022-12-23T16:26:41.454Z,12.65
2022-12-23T16:29:12.471Z,12.66
2022-12-23T16:31:45.728Z,12.71
2022-12-23T16:34:19.103Z,12.60
2022-12-23T16:36:46.976Z,12.85
2022-12-23T16:39:21.465Z,12.84
2022-12-23T16:41:49.768Z,12.91
2022-12-23T16:44:18.962Z,13.03
2022-12-23T16:46:50.594Z,13.05
2022-12-23T16:49:20.976Z,13.15
2022-12-23T16:51:49.753Z,13.15
2022-12-23T16:54:21.454Z,13.19
2022-12-23T16:56:50.092Z,13.38
2022-12-23T16:59:19.835Z,13.39
2022-12-23T17:01:49.543Z,13.55
2022-12-23T17:04:17.543Z,13.57
2022-12-23T17:06:46.553Z,13.43
2022-12-23T17:09:14.611Z,13.41
2022-12-23T17:11:44.649Z,13.35
2022-12-23T17:14:17.273Z,13.25
2022-12-23T17:16:47.954Z,13.23
2022-12-23T17:19:20.515Z,13.16
2022-12-23T17:21:56.529Z,13.15
2022-12-23T17:24:26.060Z,13.16
2022-12-23T17:26:56.677Z,13.09
2022-12-23T17:29:24.865Z,13.00
2022-12-23T17:31:54.305Z,12.99
2022-12-23T17:34:24.509Z,13.21
2022-12-23T17:36:53.198Z,12.91
2022-12-23T17:39:22.146Z,12.93
2022-12-23T17:41:49.993Z,12.92
2022-12-23T17:44:18.772Z,12.95
2022-12-23T17:46:47.562Z,13.03
2022-12-23T17:49:16.843Z,12.97
2022-12-23T17:51:45.048Z,12.96
2022-12-23T17:54:22.964Z,13.05
2022-12-23T17:56:51.374Z,12.79
2022-12-23T17:59:19.493Z,13.00
2022-12-23T18:01:47.441Z,12.97
2022-12-23T18:04:19.459Z,12.99
2022-12-23T18:06:47.426Z,12.98
2022-12-23T18:09:15.401Z,12.91
2022-12-23T18:11:46.617Z,12.92
2022-12-23T18:14:18.732Z,12.98
2022-12-23T18:16:47.107Z,12.81
2022-12-23T18:19:21.300Z,12.95
2022-12-23T18:21:49.824Z,12.87
2022-12-23T18:24:18.733Z,12.77
2022-12-23T18:26:47.562Z,12.75
2022-12-23T18:29:18.650Z,12.88
2022-12-23T18:31:51.915Z,12.76
2022-12-23T18:34:22.085Z,12.78
2022-12-23T18:36:51.928Z,12.73
2022-12-23T18:39:20.145Z,12.80
2022-12-23T18:41:48.181Z,12.84
2022-12-23T18:44:20.037Z,12.72
2022-12-23T18:46:48.221Z,12.81
2022-12-23T18:49:16.245Z,12.82
2022-12-23T18:51:45.712Z,12.81
2022-12-23T18:54:15.334Z,12.93
2022-12-23T18:56:43.175Z,12.74
2022-12-23T18:59:17.010Z,12.85
2022-12-23T19:01:45.057Z,12.86
2022-12-23T19:04:13.327Z,12.88
2022-12-23T19:06:41.947Z,12.91
2022-12-23T19:09:15.348Z,12.89
2022-12-23T19:11:43.396Z,12.94
2022-12-23T19:14:13.094Z,12.88
2022-12-23T19:16:47.579Z,12.82
2022-12-23T19:19:19.040Z,12.74
2022-12-23T19:21:47.215Z,12.78
2022-12-23T19:24:16.819Z,12.57
2022-12-23T19:26:44.754Z,12.60
2022-12-23T19:29:12.762Z,12.70
2022-12-23T19:31:41.309Z,12.76
2022-12-23T19:34:14.543Z,12.67
2022-12-23T19:36:43.549Z,12.82
2022-12-23T19:39:16.096Z,12.91
2022-12-23T19:41:45.841Z,12.93
2022-12-23T19:44:13.888Z,12.99
2022-12-23T19:46:42.239Z,13.14
2022-12-23T19:49:15.712Z,13.20
2022-12-23T19:51:47.208Z,13.04
2022-12-23T19:54:15.134Z,13.09
2022-12-23T19:56:43.083Z,12.99
2022-12-23T19:59:12.456Z,13.00
2022-12-23T20:01:40.256Z,12.91
2022-12-23T20:04:08.136Z,12.69
2022-12-23T20:06:38.309Z,12.76
2022-12-23T20:09:07.796Z,12.78
2022-12-23T20:11:37.885Z,12.67
2022-12-23T20:14:06.650Z,12.64
2022-12-23T20:16:37.100Z,12.65
2022-12-23T20:19:05.657Z,12.55
2022-12-23T20:21:34.128Z,12.41
2022-12-23T20:24:02.756Z,12.47
2022-12-23T20:26:31.278Z,12.33
2022-12-23T20:28:59.487Z,12.27
2022-12-23T20:31:29.266Z,12.25
2022-12-23T20:33:59.990Z,12.41
2022-12-23T20:36:30.711Z,12.43
2022-12-23T20:38:59.306Z,12.47
2022-12-23T20:41:30.259Z,12.30
2022-12-23T20:46:46.696Z,12.60
2022-12-23T20:49:15.968Z,12.50
2022-12-23T20:51:43.750Z,12.48
2022-12-23T20:54:11.558Z,12.65
2022-12-23T20:56:39.537Z,12.60
2022-12-23T20:59:07.748Z,12.72
2022-12-23T21:01:37.936Z,12.75
2022-12-23T21:04:08.190Z,12.85
2022-12-23T21:06:38.033Z,12.90
2022-12-23T21:09:07.742Z,13.01
2022-12-23T21:11:38.739Z,13.10
2022-12-23T21:14:07.729Z,13.06
2022-12-23T21:16:37.652Z,13.03
2022-12-23T21:19:06.317Z,13.05
2022-12-23T21:21:34.340Z,13.14
2022-12-23T21:24:05.169Z,13.33
2022-12-23T21:26:34.948Z,13.23
2022-12-23T21:29:05.505Z,13.24
2022-12-23T21:31:35.710Z,13.24
2022-12-23T21:34:04.395Z,13.20
2022-12-23T21:36:33.770Z,13.05
2022-12-23T21:39:03.475Z,13.07
2022-12-23T21:41:34.972Z,13.23
2022-12-23T21:44:03.635Z,13.19
2022-12-23T21:46:31.554Z,13.03
2022-12-23T21:49:00.099Z,12.99
2022-12-23T21:51:36.897Z,13.04
2022-12-23T21:54:09.433Z,13.02
2022-12-23T21:56:37.432Z,13.05
2022-12-23T21:59:07.594Z,13.00
2022-12-23T22:01:35.668Z,13.06
2022-12-23T22:04:04.347Z,12.97
2022-12-23T22:06:34.194Z,12.96
2022-12-23T22:09:02.057Z,12.85
2022-12-23T22:11:33.442Z,12.86
2022-12-23T22:14:02.577Z,12.89
2022-12-23T22:16:31.645Z,12.89
2022-12-23T22:19:01.437Z,12.84
2022-12-23T22:21:31.168Z,12.86
2022-12-23T22:23:59.238Z,12.92
2022-12-23T22:26:28.878Z,12.69
2022-12-23T22:29:00.782Z,12.67
2022-12-23T22:31:32.867Z,12.60
2022-12-23T22:34:00.836Z,12.41
2022-12-23T22:36:28.756Z,12.50
2022-12-23T22:39:01.736Z,12.50
2022-12-23T22:41:31.119Z,12.58
2022-12-23T22:44:01.176Z,12.58
2022-12-23T22:46:29.449Z,12.66
2022-12-23T22:48:58.872Z,12.70
2022-12-23T22:51:29.347Z,12.58
2022-12-23T22:53:57.784Z,12.62
2022-12-23T22:56:26.860Z,12.57
2022-12-23T22:58:54.960Z,12.54
2022-12-23T23:01:26.010Z,12.44
2022-12-23T23:03:57.314Z,12.51
2022-12-23T23:06:26.810Z,12.58
2022-12-23T23:08:54.913Z,12.49
2022-12-23T23:11:23.369Z,12.62
2022-12-23T23:13:51.571Z,12.58
2022-12-23T23:16:19.640Z,12.59
2022-12-23T23:18:48.882Z,12.82
2022-12-23T23:21:16.971Z,12.90
2022-12-23T23:23:44.961Z,12.73
2022-12-23T23:26:14.024Z,12.76
2022-12-23T23:28:42.295Z,12.84
2022-12-23T23:31:40.689Z,12.84
2022-12-23T23:34:00.006Z,12.61
2022-12-23T23:36:27.863Z,12.79
2022-12-23T23:38:55.744Z,12.65
2022-12-23T23:41:24.367Z,12.78
2022-12-23T23:43:52.771Z,12.74
2022-12-23T23:46:20.975Z,12.64
2022-12-23T23:48:48.797Z,12.53
2022-12-23T23:51:17.903Z,12.58
2022-12-23T23:53:45.772Z,12.53
2022-12-23T23:56:13.587Z,12.59
2022-12-23T23:58:41.398Z,12.57
